createdAt,value
2023-05-17T00:01:43.188Z,3.75
2023-05-17T00:04:09.646Z,7.25
2023-05-17T00:06:36.322Z,7.88
2023-05-17T00:09:03.222Z,7.95
2023-05-17T00:11:29.728Z,6.00
2023-05-17T00:13:56.146Z,7.32
2023-05-17T00:16:22.577Z,7.40
2023-05-17T00:18:49.050Z,7.07
2023-05-17T00:21:15.611Z,6.22
2023-05-17T00:23:42.027Z,8.80
2023-05-17T00:26:08.468Z,9.48
2023-05-17T00:28:34.914Z,8.98
2023-05-17T00:31:01.666Z,9.23
2023-05-17T00:33:28.112Z,9.23
2023-05-17T00:35:54.773Z,5.93
2023-05-17T00:38:21.177Z,8.57
2023-05-17T00:40:47.596Z,6.93
2023-05-17T00:43:13.995Z,13.85
2023-05-17T00:45:40.428Z,10.90
2023-05-17T00:48:06.946Z,11.18
2023-05-17T00:50:33.681Z,12.00
2023-05-17T00:53:00.322Z,11.35
2023-05-17T00:55:27.510Z,11.38
2023-05-17T00:57:54.219Z,11.57
2023-05-17T01:00:20.933Z,7.40
2023-05-17T01:02:48.809Z,8.23
2023-05-17T01:05:15.638Z,10.23
2023-05-17T01:07:42.063Z,13.07
2023-05-17T01:10:09.436Z,13.40
2023-05-17T01:13:10.048Z,5.50
2023-05-17T01:15:43.426Z,10.18
2023-05-17T01:18:27.035Z,10.00
2023-05-17T01:20:56.103Z,14.13
2023-05-17T01:23:51.522Z,10.43
2023-05-17T01:26:31.037Z,8.25
2023-05-17T01:28:57.579Z,9.07
2023-05-17T01:31:24.993Z,9.52
2023-05-17T01:33:51.483Z,12.40
2023-05-17T01:36:17.994Z,9.75
2023-05-17T01:38:44.427Z,8.43
2023-05-17T01:41:14.271Z,12.40
2023-05-17T01:43:47.386Z,12.30
2023-05-17T01:46:27.486Z,8.18
2023-05-17T01:49:04.900Z,11.30
2023-05-17T01:51:33.870Z,12.25
2023-05-17T01:54:11.169Z,12.38
2023-05-17T01:56:42.660Z,13.35
2023-05-17T01:59:11.285Z,16.45
2023-05-17T02:01:39.289Z,16.42
2023-05-17T02:04:05.981Z,13.48
2023-05-17T02:06:32.410Z,10.20
2023-05-17T02:09:01.034Z,10.98
2023-05-17T02:11:27.457Z,12.93
2023-05-17T02:13:53.875Z,10.35
2023-05-17T02:16:20.852Z,12.82
2023-05-17T02:18:47.384Z,14.82
2023-05-17T02:21:13.885Z,12.07
2023-05-17T02:23:40.295Z,12.88
2023-05-17T02:26:06.708Z,11.35
2023-05-17T02:28:33.289Z,13.93
2023-05-17T02:30:59.757Z,13.70
2023-05-17T02:33:26.285Z,12.90
2023-05-17T02:35:52.808Z,17.77
2023-05-17T02:38:19.231Z,13.52
2023-05-17T02:40:45.717Z,12.77
2023-05-17T02:43:12.141Z,9.23
2023-05-17T02:45:38.562Z,14.88
2023-05-17T02:48:05.768Z,16.27
2023-05-17T02:50:32.292Z,9.57
2023-05-17T02:52:58.769Z,13.43
2023-05-17T02:55:25.255Z,15.65
2023-05-17T02:57:51.669Z,16.05
2023-05-17T03:00:18.239Z,13.63
2023-05-17T03:02:44.761Z,15.60
2023-05-17T03:05:11.207Z,9.30
2023-05-17T03:07:37.823Z,16.42
2023-05-17T03:10:04.516Z,10.00
2023-05-17T03:12:30.925Z,14.60
2023-05-17T03:14:57.336Z,14.48
2023-05-17T03:17:23.768Z,14.27
2023-05-17T03:19:50.292Z,14.50
2023-05-17T03:22:16.813Z,9.43
2023-05-17T03:24:43.680Z,13.95
2023-05-17T03:27:10.272Z,19.05
2023-05-17T03:29:36.749Z,11.30
2023-05-17T03:32:03.246Z,20.02
2023-05-17T03:34:29.685Z,15.27
2023-05-17T03:36:56.151Z,12.20
2023-05-17T03:39:22.578Z,14.15
2023-05-17T03:41:49.038Z,12.43
2023-05-17T03:44:15.558Z,12.85
2023-05-17T03:46:42.014Z,13.55
2023-05-17T03:49:08.620Z,19.50
2023-05-17T03:51:35.236Z,15.52
2023-05-17T03:54:01.785Z,17.35
2023-05-17T03:56:28.293Z,13.70
2023-05-17T03:58:54.679Z,13.65
2023-05-17T04:01:21.219Z,15.75
2023-05-17T04:03:47.777Z,17.40
2023-05-17T04:06:14.846Z,10.90
2023-05-17T04:08:41.397Z,13.55
2023-05-17T04:11:12.937Z,15.98
2023-05-17T04:13:40.538Z,10.95
2023-05-17T04:16:07.936Z,17.98
2023-05-17T04:18:36.203Z,18.38
2023-05-17T04:21:03.323Z,20.05
2023-05-17T04:23:30.326Z,18.05
2023-05-17T04:25:58.330Z,14.23
2023-05-17T04:28:25.099Z,23.17
2023-05-17T04:30:52.188Z,18.45
2023-05-17T04:33:18.841Z,16.15
2023-05-17T04:35:45.825Z,21.77
2023-05-17T04:38:12.509Z,25.83
2023-05-17T04:40:38.998Z,24.40
2023-05-17T04:43:05.919Z,18.75
2023-05-17T04:45:33.392Z,16.38
2023-05-17T04:47:59.891Z,17.88
2023-05-17T04:50:26.726Z,22.35
2023-05-17T04:52:53.173Z,25.10
2023-05-17T04:55:19.637Z,23.58
2023-05-17T04:57:46.046Z,22.75
2023-05-17T05:00:15.238Z,26.58
2023-05-17T05:02:42.291Z,29.60
2023-05-17T05:05:11.764Z,28.15
2023-05-17T05:07:39.738Z,28.10
2023-05-17T05:10:06.825Z,30.15
2023-05-17T05:12:33.334Z,29.65
2023-05-17T05:15:00.993Z,25.90
2023-05-17T05:17:29.319Z,25.60
2023-05-17T05:19:55.944Z,26.45
2023-05-17T05:22:22.454Z,29.30
2023-05-17T05:24:48.988Z,26.45
2023-05-17T05:27:15.415Z,21.90
2023-05-17T05:29:42.586Z,21.85
2023-05-17T05:32:09.132Z,20.90
2023-05-17T05:34:35.684Z,23.35
2023-05-17T05:37:02.119Z,29.67
2023-05-17T05:39:28.576Z,32.17
2023-05-17T05:41:55.002Z,24.30
2023-05-17T05:44:21.650Z,21.38
2023-05-17T05:46:49.551Z,29.52
2023-05-17T05:49:16.047Z,26.55
2023-05-17T05:51:42.480Z,24.60
2023-05-17T05:54:09.012Z,20.50
2023-05-17T05:56:35.534Z,21.80
2023-05-17T05:59:02.290Z,20.10
2023-05-17T06:01:29.569Z,21.13
2023-05-17T06:03:56.066Z,20.83
2023-05-17T06:06:22.591Z,19.23
2023-05-17T06:08:49.179Z,24.85
2023-05-17T06:11:15.653Z,21.35
2023-05-17T06:13:42.072Z,23.05
2023-05-17T06:16:08.506Z,15.70
2023-05-17T06:18:35.271Z,25.50
2023-05-17T06:21:01.819Z,17.20
2023-05-17T06:23:28.244Z,21.83
2023-05-17T06:25:54.704Z,16.15
2023-05-17T06:28:21.137Z,18.98
2023-05-17T06:30:47.709Z,13.40
2023-05-17T06:33:14.221Z,19.52
2023-05-17T06:35:54.958Z,19.60
2023-05-17T06:38:23.500Z,24.33
2023-05-17T06:40:54.209Z,18.42
2023-05-17T06:43:20.660Z,23.50
2023-05-17T06:45:47.164Z,16.23
2023-05-17T06:48:13.736Z,20.95
2023-05-17T06:50:40.336Z,19.27
2023-05-17T06:53:06.975Z,20.00
2023-05-17T06:55:33.550Z,21.13
2023-05-17T06:58:00.414Z,17.65
2023-05-17T07:00:27.301Z,10.43
2023-05-17T07:02:54.071Z,17.65
2023-05-17T07:05:21.820Z,21.75
2023-05-17T07:07:48.308Z,15.23
2023-05-17T07:10:14.787Z,9.63
2023-05-17T07:12:41.216Z,10.25
2023-05-17T07:15:08.262Z,16.60
2023-05-17T07:17:34.790Z,16.88
2023-05-17T07:20:01.438Z,13.77
2023-05-17T07:22:27.972Z,8.90
2023-05-17T07:24:54.423Z,14.40
2023-05-17T07:27:20.906Z,10.35
2023-05-17T07:29:47.361Z,10.93
2023-05-17T07:32:13.977Z,13.40
2023-05-17T07:34:40.452Z,18.50
2023-05-17T07:37:07.008Z,16.38
2023-05-17T07:39:33.430Z,14.63
2023-05-17T07:41:59.942Z,13.77
2023-05-17T07:44:26.492Z,13.10
2023-05-17T07:46:52.995Z,10.32
2023-05-17T07:49:19.552Z,17.42
2023-05-17T07:51:46.219Z,9.15
2023-05-17T07:54:27.260Z,14.52
2023-05-17T07:56:55.222Z,14.02
2023-05-17T07:59:22.428Z,5.40
2023-05-17T08:01:48.882Z,11.27
2023-05-17T08:04:15.816Z,15.20
2023-05-17T08:06:43.332Z,10.75
2023-05-17T08:09:11.001Z,8.25
2023-05-17T08:11:37.725Z,10.18
2023-05-17T08:14:05.139Z,12.27
2023-05-17T08:16:31.683Z,15.00
2023-05-17T08:18:58.289Z,9.80
2023-05-17T08:21:24.917Z,6.03
2023-05-17T08:23:51.628Z,8.73
2023-05-17T08:26:18.854Z,7.82
2023-05-17T08:28:45.655Z,15.02
2023-05-17T08:31:12.466Z,10.40
2023-05-17T08:33:39.073Z,17.55
2023-05-17T08:36:08.205Z,13.35
2023-05-17T08:38:35.328Z,9.18
2023-05-17T08:41:02.958Z,8.00
2023-05-17T08:43:31.032Z,12.82
2023-05-17T08:45:58.253Z,10.05
2023-05-17T08:48:26.425Z,12.75
2023-05-17T08:50:54.276Z,11.38
2023-05-17T08:53:20.858Z,11.52
2023-05-17T08:55:50.675Z,10.73
2023-05-17T08:58:21.374Z,8.80
2023-05-17T09:00:49.380Z,10.43
2023-05-17T09:03:18.336Z,6.35
2023-05-17T09:05:47.720Z,8.82
2023-05-17T09:08:14.313Z,14.75
2023-05-17T09:10:41.547Z,8.32
2023-05-17T09:13:08.368Z,15.00
2023-05-17T09:15:34.852Z,10.25
2023-05-17T09:18:01.916Z,14.25
2023-05-17T09:20:35.058Z,7.93
2023-05-17T09:23:01.987Z,12.27
2023-05-17T09:25:31.758Z,8.02
2023-05-17T09:28:03.796Z,10.52
2023-05-17T09:32:58.164Z,7.55
2023-05-17T09:35:31.605Z,8.20
2023-05-17T09:38:06.450Z,9.70
2023-05-17T09:40:32.934Z,8.98
2023-05-17T09:42:59.950Z,7.28
2023-05-17T09:45:26.639Z,12.07
2023-05-17T09:47:53.766Z,10.85
2023-05-17T09:50:22.459Z,12.43
2023-05-17T09:52:50.689Z,13.00
2023-05-17T09:55:17.348Z,9.35
2023-05-17T09:57:43.827Z,8.45
2023-05-17T10:00:12.076Z,6.40
2023-05-17T10:02:41.030Z,10.80
2023-05-17T10:05:12.336Z,7.25
2023-05-17T10:07:39.162Z,7.07
2023-05-17T10:10:06.657Z,10.43
2023-05-17T10:12:35.897Z,13.70
2023-05-17T10:15:02.415Z,9.93
2023-05-17T10:17:29.977Z,12.23
2023-05-17T10:19:57.298Z,7.63
2023-05-17T10:22:24.256Z,10.90
2023-05-17T10:24:51.797Z,11.32
2023-05-17T10:27:18.585Z,7.40
2023-05-17T10:29:47.692Z,9.77
2023-05-17T10:32:17.307Z,11.00
2023-05-17T10:34:45.745Z,9.70
2023-05-17T10:37:14.066Z,7.97
2023-05-17T10:39:43.534Z,8.68
2023-05-17T10:42:14.856Z,8.60
2023-05-17T10:44:42.000Z,8.05
2023-05-17T10:47:08.844Z,7.55
2023-05-17T10:49:38.036Z,9.65
2023-05-17T10:52:18.297Z,6.90
2023-05-17T10:54:46.617Z,7.00
2023-05-17T10:57:21.802Z,6.70
2023-05-17T10:59:59.682Z,8.60
2023-05-17T11:02:28.180Z,7.25
2023-05-17T11:04:56.561Z,9.93
2023-05-17T11:07:29.700Z,13.60
2023-05-17T11:10:08.471Z,9.02
2023-05-17T11:12:42.901Z,7.45
2023-05-17T11:15:14.160Z,10.48
2023-05-17T11:17:43.987Z,9.00
2023-05-17T11:20:31.464Z,7.78
2023-05-17T11:23:00.232Z,6.53
2023-05-17T11:25:37.355Z,8.93
2023-05-17T11:28:17.655Z,4.75
2023-05-17T11:30:51.440Z,10.82
2023-05-17T11:33:29.852Z,8.55
2023-05-17T11:36:04.205Z,5.53
2023-05-17T11:38:32.390Z,10.07
2023-05-17T11:40:59.778Z,6.85
2023-05-17T11:43:31.043Z,5.53
2023-05-17T11:46:01.359Z,6.93
2023-05-17T11:48:28.060Z,8.85
2023-05-17T11:50:56.559Z,6.80
2023-05-17T11:53:25.102Z,3.38
2023-05-17T11:55:52.237Z,10.93
2023-05-17T11:58:21.373Z,9.18
2023-05-17T12:00:52.806Z,6.57
2023-05-17T12:03:24.706Z,9.55
2023-05-17T12:06:04.058Z,4.85
2023-05-17T12:08:31.996Z,9.75
2023-05-17T12:10:58.613Z,5.90
2023-05-17T12:13:28.376Z,7.07
2023-05-17T12:15:57.390Z,6.53
2023-05-17T12:18:35.376Z,5.28
2023-05-17T12:21:01.967Z,8.40
2023-05-17T12:23:32.278Z,9.35
2023-05-17T12:26:06.125Z,6.18
2023-05-17T12:28:32.838Z,10.70
2023-05-17T12:31:02.892Z,6.28
2023-05-17T12:33:31.447Z,7.90
2023-05-17T12:35:58.227Z,8.27
2023-05-17T12:38:27.779Z,8.55
2023-05-17T12:40:55.042Z,10.77
2023-05-17T12:43:24.322Z,5.95
2023-05-17T12:45:52.274Z,7.68
2023-05-17T12:48:18.981Z,6.22
2023-05-17T12:50:46.164Z,7.18
2023-05-17T12:53:12.625Z,8.48
2023-05-17T12:55:39.102Z,9.98
2023-05-17T12:58:05.820Z,11.95
2023-05-17T13:00:32.273Z,7.70
2023-05-17T13:02:58.838Z,8.07
2023-05-17T13:05:25.457Z,7.85
2023-05-17T13:07:51.932Z,9.07
2023-05-17T13:10:26.193Z,7.55
2023-05-17T13:12:59.755Z,8.68
2023-05-17T13:15:28.151Z,11.73
2023-05-17T13:17:54.640Z,6.63
2023-05-17T13:20:21.957Z,4.93
2023-05-17T13:22:49.148Z,6.68
2023-05-17T13:25:16.087Z,5.65
2023-05-17T13:27:46.577Z,4.80
2023-05-17T13:30:13.577Z,7.10
2023-05-17T13:32:40.567Z,8.70
2023-05-17T13:35:07.425Z,9.00
2023-05-17T13:37:34.512Z,6.72
2023-05-17T13:40:00.950Z,8.18
2023-05-17T13:42:27.402Z,6.75
2023-05-17T13:44:53.875Z,7.35
2023-05-17T13:47:20.337Z,7.75
2023-05-17T13:49:46.814Z,6.45
2023-05-17T13:52:13.762Z,7.18
2023-05-17T13:54:40.335Z,10.57
2023-05-17T13:57:07.592Z,10.52
2023-05-17T13:59:34.178Z,10.30
2023-05-17T14:02:00.586Z,12.35
2023-05-17T14:04:27.022Z,8.43
2023-05-17T14:06:55.183Z,8.63
2023-05-17T14:09:21.917Z,9.18
2023-05-17T14:11:48.366Z,8.90
2023-05-17T14:14:14.787Z,8.85
2023-05-17T14:16:41.438Z,10.00
2023-05-17T14:19:07.912Z,8.95
2023-05-17T14:21:34.371Z,10.00
2023-05-17T14:24:00.867Z,12.15
2023-05-17T14:26:27.473Z,9.35
2023-05-17T14:28:54.051Z,8.73
2023-05-17T14:31:20.933Z,9.02
2023-05-17T14:33:48.574Z,9.95
2023-05-17T14:36:15.076Z,9.98
2023-05-17T14:38:41.590Z,9.90
2023-05-17T14:41:08.165Z,11.85
2023-05-17T14:43:34.615Z,10.25
2023-05-17T14:46:01.495Z,11.38
2023-05-17T14:48:27.945Z,14.07
2023-05-17T14:50:54.410Z,10.75
2023-05-17T14:53:21.005Z,13.48
2023-05-17T14:55:47.609Z,6.57
2023-05-17T14:58:14.135Z,10.27
2023-05-17T15:00:41.905Z,11.25
2023-05-17T15:03:09.260Z,8.52
2023-05-17T15:05:36.099Z,11.15
2023-05-17T15:08:02.556Z,14.65
2023-05-17T15:10:29.834Z,13.32
2023-05-17T15:12:56.439Z,9.85
2023-05-17T15:15:22.885Z,12.20
2023-05-17T15:17:49.408Z,10.80
2023-05-17T15:20:16.045Z,15.38
2023-05-17T15:22:42.534Z,9.05
2023-05-17T15:25:09.061Z,10.75
2023-05-17T15:27:35.628Z,8.20
2023-05-17T15:30:02.084Z,11.00
2023-05-17T15:32:28.523Z,9.25
2023-05-17T15:34:55.016Z,7.68
2023-05-17T15:37:21.516Z,7.15
2023-05-17T15:39:47.985Z,14.60
2023-05-17T15:42:14.439Z,11.15
2023-05-17T15:44:41.022Z,11.32
2023-05-17T15:47:07.496Z,8.23
2023-05-17T15:49:34.817Z,12.77
2023-05-17T15:52:01.451Z,15.40
2023-05-17T15:54:27.886Z,9.05
2023-05-17T15:56:54.349Z,10.90
2023-05-17T15:59:20.834Z,9.50
2023-05-17T16:01:47.295Z,11.95
2023-05-17T16:04:13.905Z,13.88
2023-05-17T16:06:40.989Z,9.48
2023-05-17T16:09:07.454Z,10.00
2023-05-17T16:11:33.886Z,8.57
2023-05-17T16:14:00.386Z,11.48
2023-05-17T16:16:26.920Z,11.43
2023-05-17T16:18:53.487Z,10.50
2023-05-17T16:21:20.035Z,12.95
2023-05-17T16:23:46.553Z,10.75
2023-05-17T16:26:13.172Z,8.07
2023-05-17T16:28:39.736Z,8.25
2023-05-17T16:31:06.491Z,10.15
2023-05-17T16:33:32.954Z,8.65
2023-05-17T16:35:59.417Z,11.18
2023-05-17T16:38:26.208Z,9.45
2023-05-17T16:40:52.624Z,7.82
2023-05-17T16:43:19.045Z,8.80
2023-05-17T16:45:46.265Z,10.32
2023-05-17T16:48:13.995Z,10.18
2023-05-17T16:50:43.538Z,8.43
2023-05-17T16:53:09.990Z,9.93
2023-05-17T16:55:36.584Z,10.43
2023-05-17T16:58:03.317Z,9.02
2023-05-17T17:00:30.027Z,9.95
2023-05-17T17:02:58.260Z,10.13
2023-05-17T17:05:24.770Z,8.88
2023-05-17T17:07:51.456Z,12.88
2023-05-17T17:10:17.954Z,8.35
2023-05-17T17:12:44.383Z,12.45
2023-05-17T17:15:10.991Z,8.32
2023-05-17T17:17:37.498Z,7.82
2023-05-17T17:20:05.544Z,9.25
2023-05-17T17:22:32.138Z,9.43
2023-05-17T17:24:58.552Z,11.48
2023-05-17T17:27:24.960Z,9.95
2023-05-17T17:29:51.420Z,10.32
2023-05-17T17:32:17.922Z,10.18
2023-05-17T17:34:44.404Z,7.07
2023-05-17T17:37:10.935Z,13.05
2023-05-17T17:39:37.363Z,17.42
2023-05-17T17:42:03.888Z,7.18
2023-05-17T17:44:30.319Z,7.25
2023-05-17T17:46:56.787Z,8.93
2023-05-17T17:49:23.322Z,6.57
2023-05-17T17:51:49.791Z,13.10
2023-05-17T17:54:16.260Z,9.38
2023-05-17T17:56:42.701Z,8.75
2023-05-17T17:59:09.133Z,10.68
2023-05-17T18:01:37.403Z,11.52
2023-05-17T18:04:05.198Z,11.00
2023-05-17T18:06:31.658Z,15.35
2023-05-17T18:08:58.148Z,6.75
2023-05-17T18:11:24.560Z,9.13
2023-05-17T18:13:51.071Z,5.90
2023-05-17T18:16:17.848Z,11.27
2023-05-17T18:18:44.400Z,5.32
2023-05-17T18:21:11.426Z,11.50
2023-05-17T18:23:37.892Z,10.07
2023-05-17T18:26:04.394Z,9.63
2023-05-17T18:28:41.383Z,9.27
2023-05-17T18:31:09.128Z,7.95
2023-05-17T18:33:35.568Z,13.25
2023-05-17T18:36:02.073Z,6.40
2023-05-17T18:38:28.656Z,10.73
2023-05-17T18:40:55.059Z,6.55
2023-05-17T18:43:21.453Z,7.50
2023-05-17T18:45:47.945Z,6.63
2023-05-17T18:48:14.386Z,12.32
2023-05-17T18:50:40.842Z,10.20
2023-05-17T18:53:07.298Z,8.05
2023-05-17T18:55:33.785Z,8.13
2023-05-17T18:58:00.399Z,7.32
2023-05-17T19:00:26.962Z,8.25
2023-05-17T19:02:53.598Z,8.73
2023-05-17T19:05:20.151Z,5.53
2023-05-17T19:07:46.538Z,9.82
2023-05-17T19:10:13.100Z,7.70
2023-05-17T19:12:39.596Z,9.02
2023-05-17T19:15:06.361Z,10.40
2023-05-17T19:17:32.934Z,4.90
2023-05-17T19:19:59.448Z,6.22
2023-05-17T19:22:25.944Z,6.38
2023-05-17T19:24:52.376Z,6.90
2023-05-17T19:27:19.808Z,7.63
2023-05-17T19:29:47.168Z,6.68
2023-05-17T19:32:13.717Z,5.78
2023-05-17T19:34:40.363Z,12.52
2023-05-17T19:37:07.202Z,5.22
2023-05-17T19:39:33.646Z,8.82
2023-05-17T19:42:00.295Z,8.25
2023-05-17T19:44:26.698Z,4.82
2023-05-17T19:46:53.274Z,8.82
2023-05-17T19:49:19.746Z,4.78
2023-05-17T19:51:46.644Z,7.40
2023-05-17T19:54:13.044Z,7.82
2023-05-17T19:56:39.536Z,11.15
2023-05-17T19:59:06.168Z,8.60
2023-05-17T20:01:32.655Z,9.23
2023-05-17T20:03:59.281Z,8.70
2023-05-17T20:06:25.837Z,8.18
2023-05-17T20:08:52.305Z,5.28
2023-05-17T20:11:18.735Z,6.75
2023-05-17T20:13:45.345Z,9.90
2023-05-17T20:16:14.564Z,4.60
2023-05-17T20:18:45.072Z,7.85
2023-05-17T20:21:15.019Z,4.78
2023-05-17T20:23:41.633Z,6.82
2023-05-17T20:26:08.097Z,10.00
2023-05-17T20:28:34.532Z,8.23
2023-05-17T20:31:01.044Z,5.18
2023-05-17T20:33:27.528Z,6.60
2023-05-17T20:35:54.057Z,6.00
2023-05-17T20:38:21.473Z,7.15
2023-05-17T20:40:47.957Z,7.22
2023-05-17T20:43:14.522Z,14.48
2023-05-17T20:45:41.044Z,9.65
2023-05-17T20:48:07.560Z,9.75
2023-05-17T20:50:34.152Z,22.60
2023-05-17T20:53:01.083Z,10.48
2023-05-17T20:55:27.508Z,6.25
2023-05-17T20:57:53.955Z,13.25
2023-05-17T21:00:21.085Z,10.30
2023-05-17T21:02:47.724Z,11.48
2023-05-17T21:05:14.204Z,9.05
2023-05-17T21:07:40.653Z,11.48
2023-05-17T21:10:08.097Z,10.75
2023-05-17T21:12:35.451Z,11.30
2023-05-17T21:15:15.676Z,7.55
2023-05-17T21:17:43.313Z,7.00
2023-05-17T21:20:10.232Z,14.27
2023-05-17T21:22:37.372Z,7.70
2023-05-17T21:25:03.985Z,6.97
2023-05-17T21:27:30.459Z,10.43
2023-05-17T21:29:56.888Z,9.15
2023-05-17T21:32:23.304Z,8.20
2023-05-17T21:34:51.023Z,9.82
2023-05-17T21:37:18.964Z,11.18
2023-05-17T21:39:45.512Z,4.85
2023-05-17T21:42:11.957Z,12.00
2023-05-17T21:44:38.366Z,8.48
2023-05-17T21:47:04.795Z,6.57
2023-05-17T21:49:31.211Z,5.85
2023-05-17T21:51:57.622Z,9.00
2023-05-17T21:54:24.731Z,7.80
2023-05-17T21:56:51.423Z,9.70
2023-05-17T21:59:17.835Z,13.98
2023-05-17T22:01:44.260Z,8.77
2023-05-17T22:04:10.739Z,15.68
2023-05-17T22:06:37.344Z,5.13
2023-05-17T22:09:06.004Z,8.35
2023-05-17T22:11:32.669Z,8.05
2023-05-17T22:13:59.075Z,6.20
2023-05-17T22:16:25.639Z,5.68
2023-05-17T22:18:52.498Z,10.18
2023-05-17T22:21:19.533Z,6.82
2023-05-17T22:23:45.975Z,11.65
2023-05-17T22:26:12.465Z,12.93
2023-05-17T22:28:38.891Z,5.57
2023-05-17T22:31:07.461Z,9.75
2023-05-17T22:33:35.613Z,11.13
2023-05-17T22:36:03.601Z,12.68
2023-05-17T22:38:30.033Z,8.45
2023-05-17T22:40:56.458Z,7.72
2023-05-17T22:43:22.852Z,8.18
2023-05-17T22:45:49.994Z,14.23
2023-05-17T22:48:16.457Z,8.85
2023-05-17T22:50:42.938Z,9.35
2023-05-17T22:53:11.218Z,11.80
2023-05-17T22:55:37.671Z,8.07
2023-05-17T22:58:04.104Z,12.75
2023-05-17T23:00:30.538Z,7.22
2023-05-17T23:02:57.024Z,8.02
2023-05-17T23:05:23.555Z,13.85
2023-05-17T23:07:49.974Z,11.27
2023-05-17T23:10:16.421Z,8.15
2023-05-17T23:12:43.105Z,9.70
2023-05-17T23:15:10.422Z,12.18
2023-05-17T23:17:39.034Z,8.93
2023-05-17T23:20:09.841Z,13.45
2023-05-17T23:22:36.938Z,14.18
2023-05-17T23:25:03.431Z,8.27
2023-05-17T23:27:30.295Z,7.32
2023-05-17T23:29:57.073Z,13.40
2023-05-17T23:32:23.941Z,12.43
2023-05-17T23:34:54.030Z,9.45
2023-05-17T23:37:20.503Z,12.45
2023-05-17T23:39:46.925Z,9.10
2023-05-17T23:42:13.348Z,8.05
2023-05-17T23:44:42.809Z,11.52
2023-05-17T23:47:12.390Z,16.35
2023-05-17T23:49:39.089Z,6.35
2023-05-17T23:52:11.941Z,9.48
2023-05-17T23:54:39.091Z,13.15
2023-05-17T23:57:06.751Z,9.57
2023-05-17T23:59:34.162Z,9.07
